Aérodrome :
LOGIN :

S'inscrire | Disclaimer

   EN    FR    IT 

 










Légende :    VFR   VFR Marginal   IFR   IFR Intensif   IFR Très Intensif
Visi : 
Plafond : 
>= 8 km
>= 3000ft
5 à 8 km
1000 à 3000 ft
1500m à 5 km
500 à 1000 ft
800 à 1500m
200 à 500 ft
< 800m
< 200 ft
Symboles :   Orages  Brouillard  Fortes neiges  Fortes précipitations  Vent > 20 kt
SIGMETs :   Divers  Orages  Givrage  Turbulence  Onde Orograph.  Cendres Volcan.







- Altitude de l'aérodrome : 156 ft
- Code IATA : MLN


GEML - Melilla

DERNIER METAR :
  • 171900Z AUTO 23004KT 9999 NCD 15/11 Q1021

METARs EXPIRÉS :
  • 171830Z AUTO 24005KT 170V330 9999 NCD 15/11 Q1021
  • 171800Z 25007KT 200V300 CAVOK 15/10 Q1021
  • 171730Z 26009KT 240V300 CAVOK 16/10 Q1021
  • 171700Z 27010KT 210V310 9999 FEW016 16/10 Q1020
  • 171630Z 27010KT 230V340 CAVOK 16/10 Q1020

TAF TAF GEML
Valide du 17 à 15h jusqu'au 18 à 15h UTC


171400Z 1715/1815 27012KT 9999 FEW015 TX18/1813Z TN08/1807Z
TEMPO 1715/1720 26018G30KT
BECMG 1807/1809 08006KT
Pas de NOTAMs connus pour ce terrain.



MET'MAP, la Météo Aéronautique d'un coup d'oeil ! - Copyright ORBIFLY Décembre 2007 - Disclaimer

ORBIFLY MET'MAP TEAM :

Programmation & Développement : Alexandra Zaïnal
Conception & Développement : Baudouin d'Aumeries
Co-Programmation & Développement : Marc-Olivier Méhu
Soutien technique & logistique : Manuel Goepfert

Contact : metmap@orbifly.com




SOURCES & CREDITS :

   NOAA